createdAt,value
2023-06-14T00:05:15.661Z,19.6
2023-06-14T00:20:15.905Z,19.5
2023-06-14T00:35:15.655Z,19.2
2023-06-14T00:50:15.636Z,19.2
2023-06-14T01:05:15.695Z,19.1
2023-06-14T01:20:15.665Z,19.1
2023-06-14T01:35:15.668Z,18.9
2023-06-14T01:50:16.074Z,18.8
2023-06-14T02:05:15.700Z,18.5
2023-06-14T02:20:15.906Z,18.2
2023-06-14T02:35:15.672Z,17.8
2023-06-14T02:50:15.940Z,17.5
2023-06-14T03:05:15.670Z,17.6
2023-06-14T03:20:15.841Z,17.3
2023-06-14T03:35:15.625Z,17.1
2023-06-14T03:50:15.806Z,17.2
2023-06-14T04:05:15.797Z,16.9
2023-06-14T04:20:15.674Z,17
2023-06-14T04:35:15.812Z,16.9
2023-06-14T04:50:15.612Z,17.1
2023-06-14T05:05:15.957Z,17.2
2023-06-14T05:20:15.671Z,17.4
2023-06-14T05:35:16.017Z,17.6
2023-06-14T05:50:15.618Z,17.9
2023-06-14T06:05:15.836Z,18.1
2023-06-14T06:20:15.614Z,18.4
2023-06-14T06:35:15.918Z,18.8
2023-06-14T06:50:15.599Z,19
2023-06-14T07:05:15.882Z,19.1
2023-06-14T07:20:15.662Z,19.4
2023-06-14T07:35:16.036Z,19.6
2023-06-14T07:50:15.719Z,19.9
2023-06-14T08:05:15.892Z,20.1
2023-06-14T08:20:15.660Z,20.8
2023-06-14T08:35:15.650Z,20.7
2023-06-14T08:50:27.683Z,21.1
2023-06-14T09:05:15.678Z,21.1
2023-06-14T09:20:15.949Z,21.3
2023-06-14T09:35:15.953Z,21.4
2023-06-14T09:50:15.683Z,21.5
2023-06-14T10:05:15.684Z,21.6
2023-06-14T10:20:15.984Z,21.8
2023-06-14T10:35:15.805Z,22.2
2023-06-14T10:50:15.698Z,22.5
2023-06-14T11:05:15.865Z,22.2
2023-06-14T11:20:15.662Z,22.6
2023-06-14T11:35:15.866Z,22.6
2023-06-14T11:50:15.677Z,23.4
2023-06-14T12:05:15.952Z,22.7
2023-06-14T12:20:15.653Z,22.9
2023-06-14T12:35:15.806Z,23
2023-06-14T12:50:16.048Z,23.5
2023-06-14T13:05:15.667Z,23.6
2023-06-14T13:20:18.176Z,23.8
2023-06-14T13:35:15.674Z,24.9
2023-06-14T13:50:15.838Z,26.6
2023-06-14T14:05:15.649Z,27.5
2023-06-14T14:20:15.996Z,27.9
2023-06-14T14:35:15.671Z,29.1
2023-06-14T14:50:15.804Z,29.2
2023-06-14T15:05:15.611Z,29
2023-06-14T15:20:15.760Z,29.2
2023-06-14T15:35:15.640Z,29.3
2023-06-14T15:50:15.774Z,29.2
2023-06-14T16:05:15.668Z,29.8
2023-06-14T16:20:15.853Z,29.8
2023-06-14T16:35:15.621Z,29.8
2023-06-14T16:50:15.831Z,30.3
2023-06-14T17:05:15.627Z,30.5
2023-06-14T17:20:15.857Z,29.2
2023-06-14T17:35:15.716Z,29.4
2023-06-14T17:50:15.830Z,29.3
2023-06-14T18:05:15.685Z,28.5
2023-06-14T18:20:15.881Z,27.2
2023-06-14T18:35:15.953Z,27.3
2023-06-14T18:50:15.819Z,26.2
2023-06-14T19:05:15.841Z,25.1
2023-06-14T19:20:15.772Z,25.1
2023-06-14T19:35:15.937Z,24.4
2023-06-14T19:50:15.956Z,23.8
2023-06-14T20:05:16.127Z,23.2
2023-06-14T20:20:15.639Z,23.1
2023-06-14T20:35:15.639Z,22.9
2023-06-14T20:50:15.869Z,22.4
2023-06-14T21:05:15.664Z,22.3
2023-06-14T21:20:15.867Z,21.8
2023-06-14T21:35:15.598Z,21.3
2023-06-14T21:50:15.804Z,21
2023-06-14T22:05:15.673Z,20.6
2023-06-14T22:20:15.914Z,20.5
2023-06-14T22:35:15.674Z,19.9
2023-06-14T22:50:15.688Z,19.5
2023-06-14T23:05:15.855Z,19.2
2023-06-14T23:20:15.678Z,19.4
2023-06-14T23:35:15.947Z,18.8
2023-06-14T23:50:15.678Z,18.8
